<?xml version="1.0" encoding="UTF-8" standalone="no" ?>
<gpx xmlns="http://www.topografix.com/GPX/1/1" xmlns:xsi="http://www.w3.org/2001/XMLSchema-instance" xsi:schemaLocation="http://www.topografix.com/GPX/1/1 http://www.topografix.com/GPX/1/1/gpx.xsd" version="1.1" creator="VisuGPX - https://www.visugpx.com">
  <metadata>
    <name>Hospice de France cirque de la Glere</name>
    <desc><![CDATA[Chemin de l'impératrice de l'Hospice de France au cirque de la Glere]]></desc>
  </metadata>
  <trk>
    <name><![CDATA[2017-08-15 17:37:54]]></name>
    <trkseg>
      <trkpt lat="42.7207" lon="0.65369">
        <ele>1452.88</ele>
        <time>2017-08-15T09:51:48Z</time>
      </trkpt>
      <trkpt lat="42.72066" lon="0.65377">
        <ele>1454.28</ele>
        <time>2017-08-15T09:52:02Z</time>
      </trkpt>
      <trkpt lat="42.72059" lon="0.65394">
        <ele>1455.05</ele>
        <time>2017-08-15T09:52:21Z</time>
      </trkpt>
      <trkpt lat="42.72051" lon="0.65413">
        <ele>1455.21</ele>
        <time>2017-08-15T09:52:35Z</time>
      </trkpt>
      <trkpt lat="42.72043" lon="0.65434">
        <ele>1454.82</ele>
        <time>2017-08-15T09:52:50Z</time>
      </trkpt>
      <trkpt lat="42.72039" lon="0.65442">
        <ele>1454.86</ele>
        <time>2017-08-15T09:52:56Z</time>
      </trkpt>
      <trkpt lat="42.72034" lon="0.65444">
        <ele>1455.16</ele>
        <time>2017-08-15T09:53:02Z</time>
      </trkpt>
      <trkpt lat="42.72018" lon="0.65442">
        <ele>1457.25</ele>
        <time>2017-08-15T09:53:20Z</time>
      </trkpt>
      <trkpt lat="42.72007" lon="0.65436">
        <ele>1459.99</ele>
        <time>2017-08-15T09:53:37Z</time>
      </trkpt>
      <trkpt lat="42.71997" lon="0.65426">
        <ele>1463.06</ele>
        <time>2017-08-15T09:53:58Z</time>
      </trkpt>
      <trkpt lat="42.71995" lon="0.6541">
        <ele>1465.87</ele>
        <time>2017-08-15T09:54:15Z</time>
      </trkpt>
      <trkpt lat="42.7198" lon="0.65402">
        <ele>1468.23</ele>
        <time>2017-08-15T09:54:34Z</time>
      </trkpt>
      <trkpt lat="42.71968" lon="0.65395">
        <ele>1469.88</ele>
        <time>2017-08-15T09:54:50Z</time>
      </trkpt>
      <trkpt lat="42.71957" lon="0.65394">
        <ele>1473.05</ele>
        <time>2017-08-15T09:55:05Z</time>
      </trkpt>
      <trkpt lat="42.71947" lon="0.6539">
        <ele>1476.17</ele>
        <time>2017-08-15T09:55:21Z</time>
      </trkpt>
      <trkpt lat="42.71936" lon="0.65389">
        <ele>1478.54</ele>
        <time>2017-08-15T09:55:35Z</time>
      </trkpt>
      <trkpt lat="42.71922" lon="0.65387">
        <ele>1481.65</ele>
        <time>2017-08-15T09:55:52Z</time>
      </trkpt>
      <trkpt lat="42.71911" lon="0.65386">
        <ele>1484.68</ele>
        <time>2017-08-15T09:56:08Z</time>
      </trkpt>
      <trkpt lat="42.71898" lon="0.65391">
        <ele>1487.76</ele>
        <time>2017-08-15T09:56:26Z</time>
      </trkpt>
      <trkpt lat="42.71882" lon="0.65399">
        <ele>1489.23</ele>
        <time>2017-08-15T09:56:42Z</time>
      </trkpt>
      <trkpt lat="42.71876" lon="0.654">
        <ele>1489.92</ele>
        <time>2017-08-15T09:56:49Z</time>
      </trkpt>
      <trkpt lat="42.71871" lon="0.65398">
        <ele>1490.64</ele>
        <time>2017-08-15T09:56:56Z</time>
      </trkpt>
      <trkpt lat="42.71862" lon="0.65388">
        <ele>1491.96</ele>
        <time>2017-08-15T09:57:10Z</time>
      </trkpt>
      <trkpt lat="42.71859" lon="0.65385">
        <ele>1491.98</ele>
        <time>2017-08-15T09:57:14Z</time>
      </trkpt>
      <trkpt lat="42.71858" lon="0.65384">
        <ele>1491.94</ele>
        <time>2017-08-15T09:57:16Z</time>
      </trkpt>
      <trkpt lat="42.71852" lon="0.65376">
        <ele>1491.95</ele>
        <time>2017-08-15T09:57:23Z</time>
      </trkpt>
      <trkpt lat="42.71839" lon="0.65359">
        <ele>1491.73</ele>
        <time>2017-08-15T09:57:39Z</time>
      </trkpt>
      <trkpt lat="42.71822" lon="0.65348">
        <ele>1491.94</ele>
        <time>2017-08-15T09:57:55Z</time>
      </trkpt>
      <trkpt lat="42.71805" lon="0.65338">
        <ele>1492.55</ele>
        <time>2017-08-15T09:58:11Z</time>
      </trkpt>
      <trkpt lat="42.71795" lon="0.65331">
        <ele>1493.04</ele>
        <time>2017-08-15T09:58:20Z</time>
      </trkpt>
      <trkpt lat="42.71784" lon="0.65312">
        <ele>1494.42</ele>
        <time>2017-08-15T09:58:35Z</time>
      </trkpt>
      <trkpt lat="42.71776" lon="0.65293">
        <ele>1496.15</ele>
        <time>2017-08-15T09:58:51Z</time>
      </trkpt>
      <trkpt lat="42.71776" lon="0.65292">
        <ele>1496.31</ele>
        <time>2017-08-15T09:58:52Z</time>
      </trkpt>
      <trkpt lat="42.71771" lon="0.65289">
        <ele>1497.07</ele>
        <time>2017-08-15T09:58:57Z</time>
      </trkpt>
      <trkpt lat="42.71755" lon="0.65282">
        <ele>1498.71</ele>
        <time>2017-08-15T09:59:13Z</time>
      </trkpt>
      <trkpt lat="42.71735" lon="0.65273">
        <ele>1500.74</ele>
        <time>2017-08-15T09:59:31Z</time>
      </trkpt>
      <trkpt lat="42.71733" lon="0.65272">
        <ele>1500.93</ele>
        <time>2017-08-15T09:59:33Z</time>
      </trkpt>
      <trkpt lat="42.7172" lon="0.65264">
        <ele>1501.66</ele>
        <time>2017-08-15T09:59:48Z</time>
      </trkpt>
      <trkpt lat="42.71711" lon="0.65263">
        <ele>1502.64</ele>
        <time>2017-08-15T10:00:03Z</time>
      </trkpt>
      <trkpt lat="42.71708" lon="0.65266">
        <ele>1503.14</ele>
        <time>2017-08-15T10:00:16Z</time>
      </trkpt>
      <trkpt lat="42.71705" lon="0.65262">
        <ele>1503.34</ele>
        <time>2017-08-15T10:00:34Z</time>
      </trkpt>
      <trkpt lat="42.717" lon="0.65256">
        <ele>1503.37</ele>
        <time>2017-08-15T10:00:39Z</time>
      </trkpt>
      <trkpt lat="42.71691" lon="0.65249">
        <ele>1503.42</ele>
        <time>2017-08-15T10:00:47Z</time>
      </trkpt>
      <trkpt lat="42.71678" lon="0.65243">
        <ele>1504.13</ele>
        <time>2017-08-15T10:00:58Z</time>
      </trkpt>
      <trkpt lat="42.71664" lon="0.65239">
        <ele>1504.91</ele>
        <time>2017-08-15T10:01:12Z</time>
      </trkpt>
      <trkpt lat="42.71654" lon="0.6524">
        <ele>1505.56</ele>
        <time>2017-08-15T10:01:21Z</time>
      </trkpt>
      <trkpt lat="42.71636" lon="0.65233">
        <ele>1506.91</ele>
        <time>2017-08-15T10:01:36Z</time>
      </trkpt>
      <trkpt lat="42.71626" lon="0.65227">
        <ele>1507.97</ele>
        <time>2017-08-15T10:01:47Z</time>
      </trkpt>
      <trkpt lat="42.71624" lon="0.65226">
        <ele>1508.4</ele>
        <time>2017-08-15T10:01:49Z</time>
      </trkpt>
      <trkpt lat="42.71618" lon="0.65218">
        <ele>1509.43</ele>
        <time>2017-08-15T10:01:55Z</time>
      </trkpt>
      <trkpt lat="42.71608" lon="0.65196">
        <ele>1510.34</ele>
        <time>2017-08-15T10:02:06Z</time>
      </trkpt>
      <trkpt lat="42.71604" lon="0.65192">
        <ele>1510.87</ele>
        <time>2017-08-15T10:02:10Z</time>
      </trkpt>
      <trkpt lat="42.71599" lon="0.6519">
        <ele>1511.63</ele>
        <time>2017-08-15T10:02:14Z</time>
      </trkpt>
      <trkpt lat="42.71594" lon="0.65187">
        <ele>1512.24</ele>
        <time>2017-08-15T10:02:19Z</time>
      </trkpt>
      <trkpt lat="42.71588" lon="0.65186">
        <ele>1512.82</ele>
        <time>2017-08-15T10:02:23Z</time>
      </trkpt>
      <trkpt lat="42.71587" lon="0.65179">
        <ele>1513.61</ele>
        <time>2017-08-15T10:02:29Z</time>
      </trkpt>
      <trkpt lat="42.71588" lon="0.65157">
        <ele>1514.06</ele>
        <time>2017-08-15T10:02:44Z</time>
      </trkpt>
      <trkpt lat="42.71592" lon="0.65151">
        <ele>1514.06</ele>
        <time>2017-08-15T10:02:49Z</time>
      </trkpt>
      <trkpt lat="42.71612" lon="0.65151">
        <ele>1513.5</ele>
        <time>2017-08-15T10:03:06Z</time>
      </trkpt>
      <trkpt lat="42.71628" lon="0.65146">
        <ele>1512.42</ele>
        <time>2017-08-15T10:03:19Z</time>
      </trkpt>
      <trkpt lat="42.7163" lon="0.65145">
        <ele>1512.38</ele>
        <time>2017-08-15T10:03:21Z</time>
      </trkpt>
      <trkpt lat="42.71644" lon="0.65141">
        <ele>1512.42</ele>
        <time>2017-08-15T10:03:36Z</time>
      </trkpt>
      <trkpt lat="42.71659" lon="0.65124">
        <ele>1512.15</ele>
        <time>2017-08-15T10:03:55Z</time>
      </trkpt>
      <trkpt lat="42.71663" lon="0.6511">
        <ele>1512.6</ele>
        <time>2017-08-15T10:04:13Z</time>
      </trkpt>
      <trkpt lat="42.71675" lon="0.65094">
        <ele>1513.4</ele>
        <time>2017-08-15T10:04:32Z</time>
      </trkpt>
      <trkpt lat="42.71693" lon="0.65079">
        <ele>1514.8</ele>
        <time>2017-08-15T10:04:52Z</time>
      </trkpt>
      <trkpt lat="42.71703" lon="0.65074">
        <ele>1515.39</ele>
        <time>2017-08-15T10:04:58Z</time>
      </trkpt>
      <trkpt lat="42.71718" lon="0.65058">
        <ele>1517.2</ele>
        <time>2017-08-15T10:05:20Z</time>
      </trkpt>
      <trkpt lat="42.71739" lon="0.65038">
        <ele>1518.43</ele>
        <time>2017-08-15T10:05:43Z</time>
      </trkpt>
      <trkpt lat="42.71756" lon="0.65022">
        <ele>1519.1</ele>
        <time>2017-08-15T10:06:03Z</time>
      </trkpt>
      <trkpt lat="42.71756" lon="0.65021">
        <ele>1519.13</ele>
        <time>2017-08-15T10:06:04Z</time>
      </trkpt>
      <trkpt lat="42.71759" lon="0.64996">
        <ele>1520.84</ele>
        <time>2017-08-15T10:06:26Z</time>
      </trkpt>
      <trkpt lat="42.71766" lon="0.64966">
        <ele>1522.35</ele>
        <time>2017-08-15T10:06:49Z</time>
      </trkpt>
      <trkpt lat="42.71766" lon="0.6495">
        <ele>1522.67</ele>
        <time>2017-08-15T10:07:01Z</time>
      </trkpt>
      <trkpt lat="42.71765" lon="0.64945">
        <ele>1522.79</ele>
        <time>2017-08-15T10:07:05Z</time>
      </trkpt>
      <trkpt lat="42.71771" lon="0.64914">
        <ele>1522.9</ele>
        <time>2017-08-15T10:07:25Z</time>
      </trkpt>
      <trkpt lat="42.71774" lon="0.6488">
        <ele>1523.87</ele>
        <time>2017-08-15T10:07:46Z</time>
      </trkpt>
      <trkpt lat="42.71771" lon="0.64851">
        <ele>1526.74</ele>
        <time>2017-08-15T10:08:04Z</time>
      </trkpt>
      <trkpt lat="42.71776" lon="0.64826">
        <ele>1529.06</ele>
        <time>2017-08-15T10:08:20Z</time>
      </trkpt>
      <trkpt lat="42.7178" lon="0.64811">
        <ele>1527.94</ele>
        <time>2017-08-15T10:08:29Z</time>
      </trkpt>
      <trkpt lat="42.71785" lon="0.64807">
        <ele>1527.37</ele>
        <time>2017-08-15T10:08:33Z</time>
      </trkpt>
      <trkpt lat="42.71795" lon="0.64793">
        <ele>1527.35</ele>
        <time>2017-08-15T10:08:48Z</time>
      </trkpt>
      <trkpt lat="42.718" lon="0.64784">
        <ele>1528.06</ele>
        <time>2017-08-15T10:08:56Z</time>
      </trkpt>
      <trkpt lat="42.71802" lon="0.64761">
        <ele>1528.87</ele>
        <time>2017-08-15T10:09:15Z</time>
      </trkpt>
      <trkpt lat="42.71806" lon="0.64726">
        <ele>1529.13</ele>
        <time>2017-08-15T10:09:38Z</time>
      </trkpt>
      <trkpt lat="42.71816" lon="0.64703">
        <ele>1530.95</ele>
        <time>2017-08-15T10:09:57Z</time>
      </trkpt>
      <trkpt lat="42.71825" lon="0.64682">
        <ele>1531.53</ele>
        <time>2017-08-15T10:10:13Z</time>
      </trkpt>
      <trkpt lat="42.71833" lon="0.64662">
        <ele>1532.57</ele>
        <time>2017-08-15T10:10:28Z</time>
      </trkpt>
      <trkpt lat="42.7184" lon="0.64647">
        <ele>1533.82</ele>
        <time>2017-08-15T10:10:48Z</time>
      </trkpt>
      <trkpt lat="42.7184" lon="0.64638">
        <ele>1534.21</ele>
        <time>2017-08-15T10:10:53Z</time>
      </trkpt>
      <trkpt lat="42.71844" lon="0.64621">
        <ele>1535.11</ele>
        <time>2017-08-15T10:11:02Z</time>
      </trkpt>
      <trkpt lat="42.71845" lon="0.64603">
        <ele>1536.13</ele>
        <time>2017-08-15T10:11:13Z</time>
      </trkpt>
      <trkpt lat="42.71844" lon="0.646">
        <ele>1536.22</ele>
        <time>2017-08-15T10:11:15Z</time>
      </trkpt>
      <trkpt lat="42.71845" lon="0.64592">
        <ele>1536.5</ele>
        <time>2017-08-15T10:11:19Z</time>
      </trkpt>
      <trkpt lat="42.71843" lon="0.64587">
        <ele>1536.71</ele>
        <time>2017-08-15T10:11:22Z</time>
      </trkpt>
      <trkpt lat="42.7185" lon="0.64571">
        <ele>1536.55</ele>
        <time>2017-08-15T10:11:34Z</time>
      </trkpt>
      <trkpt lat="42.71858" lon="0.64561">
        <ele>1536.43</ele>
        <time>2017-08-15T10:11:45Z</time>
      </trkpt>
      <trkpt lat="42.71859" lon="0.6456">
        <ele>1536.43</ele>
        <time>2017-08-15T10:11:46Z</time>
      </trkpt>
      <trkpt lat="42.71862" lon="0.64557">
        <ele>1536.45</ele>
        <time>2017-08-15T10:11:49Z</time>
      </trkpt>
      <trkpt lat="42.71866" lon="0.64551">
        <ele>1536.63</ele>
        <time>2017-08-15T10:11:56Z</time>
      </trkpt>
      <trkpt lat="42.71868" lon="0.64548">
        <ele>1536.7</ele>
        <time>2017-08-15T10:11:59Z</time>
      </trkpt>
      <trkpt lat="42.71899" lon="0.64538">
        <ele>1537</ele>
        <time>2017-08-15T10:12:17Z</time>
      </trkpt>
      <trkpt lat="42.71899" lon="0.64525">
        <ele>1537.38</ele>
        <time>2017-08-15T10:12:29Z</time>
      </trkpt>
      <trkpt lat="42.71894" lon="0.64498">
        <ele>1538.56</ele>
        <time>2017-08-15T10:12:48Z</time>
      </trkpt>
      <trkpt lat="42.71897" lon="0.64476">
        <ele>1539.76</ele>
        <time>2017-08-15T10:13:03Z</time>
      </trkpt>
      <trkpt lat="42.71892" lon="0.64444">
        <ele>1540.66</ele>
        <time>2017-08-15T10:13:23Z</time>
      </trkpt>
      <trkpt lat="42.71886" lon="0.64432">
        <ele>1541.08</ele>
        <time>2017-08-15T10:13:34Z</time>
      </trkpt>
      <trkpt lat="42.71889" lon="0.64415">
        <ele>1542.26</ele>
        <time>2017-08-15T10:13:46Z</time>
      </trkpt>
      <trkpt lat="42.71888" lon="0.6438">
        <ele>1542.68</ele>
        <time>2017-08-15T10:14:06Z</time>
      </trkpt>
      <trkpt lat="42.71891" lon="0.64354">
        <ele>1543.96</ele>
        <time>2017-08-15T10:14:24Z</time>
      </trkpt>
      <trkpt lat="42.71895" lon="0.64335">
        <ele>1545.05</ele>
        <time>2017-08-15T10:14:37Z</time>
      </trkpt>
      <trkpt lat="42.71894" lon="0.64311">
        <ele>1545.76</ele>
        <time>2017-08-15T10:14:53Z</time>
      </trkpt>
      <trkpt lat="42.71904" lon="0.64283">
        <ele>1547.26</ele>
        <time>2017-08-15T10:15:13Z</time>
      </trkpt>
      <trkpt lat="42.7191" lon="0.64257">
        <ele>1547.94</ele>
        <time>2017-08-15T10:15:32Z</time>
      </trkpt>
      <trkpt lat="42.71911" lon="0.64229">
        <ele>1548.8</ele>
        <time>2017-08-15T10:15:50Z</time>
      </trkpt>
      <trkpt lat="42.71903" lon="0.64196">
        <ele>1550.28</ele>
        <time>2017-08-15T10:16:09Z</time>
      </trkpt>
      <trkpt lat="42.71909" lon="0.64164">
        <ele>1551.46</ele>
        <time>2017-08-15T10:16:28Z</time>
      </trkpt>
      <trkpt lat="42.71902" lon="0.64146">
        <ele>1552.26</ele>
        <time>2017-08-15T10:16:46Z</time>
      </trkpt>
      <trkpt lat="42.71897" lon="0.64128">
        <ele>1552.94</ele>
        <time>2017-08-15T10:17:08Z</time>
      </trkpt>
      <trkpt lat="42.71897" lon="0.64123">
        <ele>1552.82</ele>
        <time>2017-08-15T10:17:13Z</time>
      </trkpt>
      <trkpt lat="42.71894" lon="0.6409">
        <ele>1553.5</ele>
        <time>2017-08-15T10:17:37Z</time>
      </trkpt>
      <trkpt lat="42.71896" lon="0.64085">
        <ele>1553.76</ele>
        <time>2017-08-15T10:17:40Z</time>
      </trkpt>
      <trkpt lat="42.71896" lon="0.64057">
        <ele>1554.55</ele>
        <time>2017-08-15T10:17:55Z</time>
      </trkpt>
      <trkpt lat="42.71896" lon="0.64049">
        <ele>1555.16</ele>
        <time>2017-08-15T10:17:58Z</time>
      </trkpt>
      <trkpt lat="42.719" lon="0.64032">
        <ele>1555.56</ele>
        <time>2017-08-15T10:18:08Z</time>
      </trkpt>
      <trkpt lat="42.71911" lon="0.64017">
        <ele>1556.13</ele>
        <time>2017-08-15T10:18:21Z</time>
      </trkpt>
      <trkpt lat="42.71916" lon="0.64001">
        <ele>1556.43</ele>
        <time>2017-08-15T10:18:27Z</time>
      </trkpt>
      <trkpt lat="42.71931" lon="0.63981">
        <ele>1557.18</ele>
        <time>2017-08-15T10:18:42Z</time>
      </trkpt>
      <trkpt lat="42.71936" lon="0.6397">
        <ele>1557.69</ele>
        <time>2017-08-15T10:18:50Z</time>
      </trkpt>
      <trkpt lat="42.71937" lon="0.63967">
        <ele>1557.9</ele>
        <time>2017-08-15T10:18:52Z</time>
      </trkpt>
      <trkpt lat="42.71934" lon="0.63943">
        <ele>1559</ele>
        <time>2017-08-15T10:19:07Z</time>
      </trkpt>
      <trkpt lat="42.71936" lon="0.63923">
        <ele>1559.79</ele>
        <time>2017-08-15T10:19:25Z</time>
      </trkpt>
      <trkpt lat="42.71936" lon="0.639">
        <ele>1560.55</ele>
        <time>2017-08-15T10:19:43Z</time>
      </trkpt>
      <trkpt lat="42.71941" lon="0.63879">
        <ele>1561.39</ele>
        <time>2017-08-15T10:20:02Z</time>
      </trkpt>
      <trkpt lat="42.71957" lon="0.63861">
        <ele>1562.24</ele>
        <time>2017-08-15T10:20:21Z</time>
      </trkpt>
      <trkpt lat="42.71974" lon="0.63851">
        <ele>1562.67</ele>
        <time>2017-08-15T10:20:39Z</time>
      </trkpt>
      <trkpt lat="42.71991" lon="0.63835">
        <ele>1563.88</ele>
        <time>2017-08-15T10:20:58Z</time>
      </trkpt>
      <trkpt lat="42.72" lon="0.63822">
        <ele>1564.6</ele>
        <time>2017-08-15T10:21:08Z</time>
      </trkpt>
      <trkpt lat="42.7201" lon="0.63798">
        <ele>1565.5</ele>
        <time>2017-08-15T10:21:26Z</time>
      </trkpt>
      <trkpt lat="42.72013" lon="0.63787">
        <ele>1565.37</ele>
        <time>2017-08-15T10:21:36Z</time>
      </trkpt>
      <trkpt lat="42.72021" lon="0.63771">
        <ele>1566.65</ele>
        <time>2017-08-15T10:21:55Z</time>
      </trkpt>
      <trkpt lat="42.72028" lon="0.6375">
        <ele>1566.9</ele>
        <time>2017-08-15T10:22:14Z</time>
      </trkpt>
      <trkpt lat="42.7203" lon="0.63721">
        <ele>1566.92</ele>
        <time>2017-08-15T10:22:30Z</time>
      </trkpt>
      <trkpt lat="42.7203" lon="0.63692">
        <ele>1568.34</ele>
        <time>2017-08-15T10:22:47Z</time>
      </trkpt>
      <trkpt lat="42.72036" lon="0.63663">
        <ele>1569.06</ele>
        <time>2017-08-15T10:23:05Z</time>
      </trkpt>
      <trkpt lat="42.72048" lon="0.63638">
        <ele>1569.87</ele>
        <time>2017-08-15T10:23:24Z</time>
      </trkpt>
      <trkpt lat="42.72052" lon="0.63632">
        <ele>1570.22</ele>
        <time>2017-08-15T10:23:29Z</time>
      </trkpt>
      <trkpt lat="42.72074" lon="0.6361">
        <ele>1571.35</ele>
        <time>2017-08-15T10:23:49Z</time>
      </trkpt>
      <trkpt lat="42.72082" lon="0.63592">
        <ele>1572.42</ele>
        <time>2017-08-15T10:24:06Z</time>
      </trkpt>
      <trkpt lat="42.72085" lon="0.63568">
        <ele>1574.33</ele>
        <time>2017-08-15T10:24:24Z</time>
      </trkpt>
      <trkpt lat="42.72087" lon="0.63543">
        <ele>1574.88</ele>
        <time>2017-08-15T10:24:40Z</time>
      </trkpt>
      <trkpt lat="42.72094" lon="0.63522">
        <ele>1575.33</ele>
        <time>2017-08-15T10:24:52Z</time>
      </trkpt>
      <trkpt lat="42.72105" lon="0.6349">
        <ele>1576.27</ele>
        <time>2017-08-15T10:25:09Z</time>
      </trkpt>
      <trkpt lat="42.72118" lon="0.63466">
        <ele>1577.26</ele>
        <time>2017-08-15T10:25:27Z</time>
      </trkpt>
      <trkpt lat="42.72134" lon="0.63449">
        <ele>1578.39</ele>
        <time>2017-08-15T10:25:46Z</time>
      </trkpt>
      <trkpt lat="42.72138" lon="0.63425">
        <ele>1579.44</ele>
        <time>2017-08-15T10:26:04Z</time>
      </trkpt>
      <trkpt lat="42.72142" lon="0.63389">
        <ele>1580.65</ele>
        <time>2017-08-15T10:26:24Z</time>
      </trkpt>
      <trkpt lat="42.72147" lon="0.63358">
        <ele>1581.97</ele>
        <time>2017-08-15T10:26:45Z</time>
      </trkpt>
      <trkpt lat="42.72146" lon="0.63328">
        <ele>1583.01</ele>
        <time>2017-08-15T10:27:04Z</time>
      </trkpt>
      <trkpt lat="42.72148" lon="0.63312">
        <ele>1583.08</ele>
        <time>2017-08-15T10:27:15Z</time>
      </trkpt>
      <trkpt lat="42.72151" lon="0.63288">
        <ele>1584.27</ele>
        <time>2017-08-15T10:27:34Z</time>
      </trkpt>
      <trkpt lat="42.72151" lon="0.63264">
        <ele>1586.09</ele>
        <time>2017-08-15T10:27:52Z</time>
      </trkpt>
      <trkpt lat="42.72155" lon="0.63231">
        <ele>1586.66</ele>
        <time>2017-08-15T10:28:10Z</time>
      </trkpt>
      <trkpt lat="42.72153" lon="0.6321">
        <ele>1587.51</ele>
        <time>2017-08-15T10:28:25Z</time>
      </trkpt>
      <trkpt lat="42.72149" lon="0.63185">
        <ele>1588.31</ele>
        <time>2017-08-15T10:28:41Z</time>
      </trkpt>
      <trkpt lat="42.72141" lon="0.63164">
        <ele>1589.4</ele>
        <time>2017-08-15T10:28:59Z</time>
      </trkpt>
      <trkpt lat="42.72129" lon="0.6314">
        <ele>1590.61</ele>
        <time>2017-08-15T10:29:15Z</time>
      </trkpt>
      <trkpt lat="42.72123" lon="0.63111">
        <ele>1592.64</ele>
        <time>2017-08-15T10:29:34Z</time>
      </trkpt>
      <trkpt lat="42.72118" lon="0.63073">
        <ele>1591.16</ele>
        <time>2017-08-15T10:29:52Z</time>
      </trkpt>
      <trkpt lat="42.72124" lon="0.63047">
        <ele>1594.02</ele>
        <time>2017-08-15T10:30:09Z</time>
      </trkpt>
      <trkpt lat="42.72121" lon="0.63033">
        <ele>1595.35</ele>
        <time>2017-08-15T10:30:27Z</time>
      </trkpt>
      <trkpt lat="42.72113" lon="0.63016">
        <ele>1595.07</ele>
        <time>2017-08-15T10:30:37Z</time>
      </trkpt>
      <trkpt lat="42.7211" lon="0.62987">
        <ele>1594.48</ele>
        <time>2017-08-15T10:30:54Z</time>
      </trkpt>
      <trkpt lat="42.72102" lon="0.62962">
        <ele>1594.35</ele>
        <time>2017-08-15T10:31:12Z</time>
      </trkpt>
      <trkpt lat="42.72085" lon="0.62947">
        <ele>1594.76</ele>
        <time>2017-08-15T10:31:28Z</time>
      </trkpt>
      <trkpt lat="42.72073" lon="0.62933">
        <ele>1594.71</ele>
        <time>2017-08-15T10:31:44Z</time>
      </trkpt>
      <trkpt lat="42.72064" lon="0.6293">
        <ele>1594.72</ele>
        <time>2017-08-15T10:31:49Z</time>
      </trkpt>
      <trkpt lat="42.72048" lon="0.6291">
        <ele>1595.47</ele>
        <time>2017-08-15T10:32:06Z</time>
      </trkpt>
      <trkpt lat="42.72038" lon="0.62901">
        <ele>1595.48</ele>
        <time>2017-08-15T10:32:16Z</time>
      </trkpt>
      <trkpt lat="42.7203" lon="0.62895">
        <ele>1595.47</ele>
        <time>2017-08-15T10:32:26Z</time>
      </trkpt>
      <trkpt lat="42.72016" lon="0.6288">
        <ele>1595.97</ele>
        <time>2017-08-15T10:32:43Z</time>
      </trkpt>
      <trkpt lat="42.72013" lon="0.62877">
        <ele>1596.08</ele>
        <time>2017-08-15T10:32:46Z</time>
      </trkpt>
      <trkpt lat="42.72" lon="0.62856">
        <ele>1597.22</ele>
        <time>2017-08-15T10:33:03Z</time>
      </trkpt>
      <trkpt lat="42.71996" lon="0.62849">
        <ele>1597.65</ele>
        <time>2017-08-15T10:33:08Z</time>
      </trkpt>
      <trkpt lat="42.71984" lon="0.62838">
        <ele>1598.3</ele>
        <time>2017-08-15T10:33:24Z</time>
      </trkpt>
      <trkpt lat="42.71971" lon="0.62821">
        <ele>1597.84</ele>
        <time>2017-08-15T10:33:40Z</time>
      </trkpt>
      <trkpt lat="42.71963" lon="0.62816">
        <ele>1597.55</ele>
        <time>2017-08-15T10:33:47Z</time>
      </trkpt>
      <trkpt lat="42.71958" lon="0.62811">
        <ele>1597.64</ele>
        <time>2017-08-15T10:33:51Z</time>
      </trkpt>
      <trkpt lat="42.71946" lon="0.62798">
        <ele>1598.48</ele>
        <time>2017-08-15T10:34:08Z</time>
      </trkpt>
      <trkpt lat="42.71938" lon="0.62808">
        <ele>1600.27</ele>
        <time>2017-08-15T10:34:23Z</time>
      </trkpt>
      <trkpt lat="42.71925" lon="0.62817">
        <ele>1600.77</ele>
        <time>2017-08-15T10:34:31Z</time>
      </trkpt>
      <trkpt lat="42.71921" lon="0.62812">
        <ele>1601.18</ele>
        <time>2017-08-15T10:34:56Z</time>
      </trkpt>
      <trkpt lat="42.71922" lon="0.62814">
        <ele>1601.86</ele>
        <time>2017-08-15T10:35:05Z</time>
      </trkpt>
      <trkpt lat="42.71908" lon="0.62827">
        <ele>1603.16</ele>
        <time>2017-08-15T10:35:24Z</time>
      </trkpt>
      <trkpt lat="42.71894" lon="0.62833">
        <ele>1603.22</ele>
        <time>2017-08-15T10:35:34Z</time>
      </trkpt>
      <trkpt lat="42.71879" lon="0.62814">
        <ele>1603.26</ele>
        <time>2017-08-15T10:35:53Z</time>
      </trkpt>
      <trkpt lat="42.71874" lon="0.62794">
        <ele>1603.31</ele>
        <time>2017-08-15T10:36:07Z</time>
      </trkpt>
      <trkpt lat="42.71866" lon="0.62771">
        <ele>1603.39</ele>
        <time>2017-08-15T10:36:21Z</time>
      </trkpt>
      <trkpt lat="42.71866" lon="0.6277">
        <ele>1603.41</ele>
        <time>2017-08-15T10:36:22Z</time>
      </trkpt>
      <trkpt lat="42.71859" lon="0.62749">
        <ele>1603.76</ele>
        <time>2017-08-15T10:36:38Z</time>
      </trkpt>
      <trkpt lat="42.7185" lon="0.62735">
        <ele>1604.69</ele>
        <time>2017-08-15T10:36:51Z</time>
      </trkpt>
      <trkpt lat="42.71842" lon="0.62723">
        <ele>1606</ele>
        <time>2017-08-15T10:37:05Z</time>
      </trkpt>
      <trkpt lat="42.71834" lon="0.62707">
        <ele>1605.21</ele>
        <time>2017-08-15T10:37:22Z</time>
      </trkpt>
      <trkpt lat="42.71832" lon="0.62704">
        <ele>1605.42</ele>
        <time>2017-08-15T10:37:30Z</time>
      </trkpt>
      <trkpt lat="42.71822" lon="0.62691">
        <ele>1606.55</ele>
        <time>2017-08-15T10:37:45Z</time>
      </trkpt>
      <trkpt lat="42.71814" lon="0.62676">
        <ele>1607.46</ele>
        <time>2017-08-15T10:38:01Z</time>
      </trkpt>
      <trkpt lat="42.71801" lon="0.62663">
        <ele>1608.11</ele>
        <time>2017-08-15T10:38:16Z</time>
      </trkpt>
      <trkpt lat="42.71789" lon="0.62651">
        <ele>1608.62</ele>
        <time>2017-08-15T10:38:32Z</time>
      </trkpt>
      <trkpt lat="42.71778" lon="0.62635">
        <ele>1609.58</ele>
        <time>2017-08-15T10:38:49Z</time>
      </trkpt>
      <trkpt lat="42.71763" lon="0.62623">
        <ele>1610.98</ele>
        <time>2017-08-15T10:39:07Z</time>
      </trkpt>
      <trkpt lat="42.71748" lon="0.62608">
        <ele>1611</ele>
        <time>2017-08-15T10:39:25Z</time>
      </trkpt>
      <trkpt lat="42.71738" lon="0.62597">
        <ele>1612.11</ele>
        <time>2017-08-15T10:39:40Z</time>
      </trkpt>
      <trkpt lat="42.71727" lon="0.62591">
        <ele>1613.08</ele>
        <time>2017-08-15T10:39:58Z</time>
      </trkpt>
      <trkpt lat="42.71723" lon="0.62595">
        <ele>1613.51</ele>
        <time>2017-08-15T10:40:07Z</time>
      </trkpt>
      <trkpt lat="42.71705" lon="0.62604">
        <ele>1614.48</ele>
        <time>2017-08-15T10:40:25Z</time>
      </trkpt>
      <trkpt lat="42.71685" lon="0.62606">
        <ele>1615.46</ele>
        <time>2017-08-15T10:40:43Z</time>
      </trkpt>
      <trkpt lat="42.71661" lon="0.62609">
        <ele>1615.97</ele>
        <time>2017-08-15T10:41:02Z</time>
      </trkpt>
      <trkpt lat="42.71641" lon="0.62613">
        <ele>1617.27</ele>
        <time>2017-08-15T10:41:19Z</time>
      </trkpt>
      <trkpt lat="42.7164" lon="0.62615">
        <ele>1617.42</ele>
        <time>2017-08-15T10:41:21Z</time>
      </trkpt>
      <trkpt lat="42.71638" lon="0.62617">
        <ele>1617.66</ele>
        <time>2017-08-15T10:41:24Z</time>
      </trkpt>
      <trkpt lat="42.71634" lon="0.62618">
        <ele>1617.74</ele>
        <time>2017-08-15T10:41:26Z</time>
      </trkpt>
      <trkpt lat="42.71627" lon="0.62617">
        <ele>1617.73</ele>
        <time>2017-08-15T10:41:29Z</time>
      </trkpt>
      <trkpt lat="42.71618" lon="0.62614">
        <ele>1618.05</ele>
        <time>2017-08-15T10:41:38Z</time>
      </trkpt>
      <trkpt lat="42.71614" lon="0.62611">
        <ele>1618.2</ele>
        <time>2017-08-15T10:41:41Z</time>
      </trkpt>
      <trkpt lat="42.71611" lon="0.62609">
        <ele>1618.24</ele>
        <time>2017-08-15T10:41:43Z</time>
      </trkpt>
      <trkpt lat="42.71593" lon="0.62608">
        <ele>1619.59</ele>
        <time>2017-08-15T10:42:00Z</time>
      </trkpt>
      <trkpt lat="42.71577" lon="0.62615">
        <ele>1620.41</ele>
        <time>2017-08-15T10:42:15Z</time>
      </trkpt>
      <trkpt lat="42.71561" lon="0.62624">
        <ele>1621.64</ele>
        <time>2017-08-15T10:42:32Z</time>
      </trkpt>
      <trkpt lat="42.71554" lon="0.6262">
        <ele>1621.11</ele>
        <time>2017-08-15T10:42:50Z</time>
      </trkpt>
      <trkpt lat="42.71557" lon="0.62604">
        <ele>1621.85</ele>
        <time>2017-08-15T10:43:05Z</time>
      </trkpt>
      <trkpt lat="42.71558" lon="0.62593">
        <ele>1621.3</ele>
        <time>2017-08-15T10:43:24Z</time>
      </trkpt>
      <trkpt lat="42.7156" lon="0.62585">
        <ele>1621.68</ele>
        <time>2017-08-15T10:43:49Z</time>
      </trkpt>
      <trkpt lat="42.71559" lon="0.62585">
        <ele>1621.87</ele>
        <time>2017-08-15T10:44:21Z</time>
      </trkpt>
      <trkpt lat="42.7156" lon="0.62583">
        <ele>1622.34</ele>
        <time>2017-08-15T10:44:53Z</time>
      </trkpt>
      <trkpt lat="42.71558" lon="0.62582">
        <ele>1622.35</ele>
        <time>2017-08-15T10:45:18Z</time>
      </trkpt>
      <trkpt lat="42.71559" lon="0.62584">
        <ele>1622.82</ele>
        <time>2017-08-15T10:45:53Z</time>
      </trkpt>
      <trkpt lat="42.71559" lon="0.62587">
        <ele>1622.54</ele>
        <time>2017-08-15T10:46:15Z</time>
      </trkpt>
      <trkpt lat="42.71556" lon="0.62585">
        <ele>1622.85</ele>
        <time>2017-08-15T10:46:43Z</time>
      </trkpt>
      <trkpt lat="42.71557" lon="0.62584">
        <ele>1621.83</ele>
        <time>2017-08-15T10:47:05Z</time>
      </trkpt>
      <trkpt lat="42.71561" lon="0.62581">
        <ele>1622.95</ele>
        <time>2017-08-15T10:47:37Z</time>
      </trkpt>
      <trkpt lat="42.71563" lon="0.62583">
        <ele>1623.47</ele>
        <time>2017-08-15T10:48:02Z</time>
      </trkpt>
      <trkpt lat="42.71566" lon="0.62583">
        <ele>1622.57</ele>
        <time>2017-08-15T10:48:28Z</time>
      </trkpt>
      <trkpt lat="42.71564" lon="0.62581">
        <ele>1622.84</ele>
        <time>2017-08-15T10:48:55Z</time>
      </trkpt>
      <trkpt lat="42.71562" lon="0.62582">
        <ele>1623.86</ele>
        <time>2017-08-15T10:49:21Z</time>
      </trkpt>
      <trkpt lat="42.71562" lon="0.62584">
        <ele>1623.42</ele>
        <time>2017-08-15T10:49:51Z</time>
      </trkpt>
      <trkpt lat="42.71563" lon="0.62583">
        <ele>1623.83</ele>
        <time>2017-08-15T10:50:15Z</time>
      </trkpt>
      <trkpt lat="42.71566" lon="0.6258">
        <ele>1624.35</ele>
        <time>2017-08-15T10:50:39Z</time>
      </trkpt>
      <trkpt lat="42.71567" lon="0.62582">
        <ele>1625.91</ele>
        <time>2017-08-15T10:51:09Z</time>
      </trkpt>
      <trkpt lat="42.71562" lon="0.6258">
        <ele>1626.06</ele>
        <time>2017-08-15T10:51:36Z</time>
      </trkpt>
      <trkpt lat="42.71565" lon="0.62582">
        <ele>1626.78</ele>
        <time>2017-08-15T10:52:14Z</time>
      </trkpt>
      <trkpt lat="42.71567" lon="0.62582">
        <ele>1626.76</ele>
        <time>2017-08-15T10:52:43Z</time>
      </trkpt>
      <trkpt lat="42.71566" lon="0.62579">
        <ele>1626.6</ele>
        <time>2017-08-15T10:53:22Z</time>
      </trkpt>
      <trkpt lat="42.71565" lon="0.62578">
        <ele>1626.51</ele>
        <time>2017-08-15T10:53:26Z</time>
      </trkpt>
      <trkpt lat="42.71561" lon="0.6258">
        <ele>1626.33</ele>
        <time>2017-08-15T10:54:01Z</time>
      </trkpt>
      <trkpt lat="42.7156" lon="0.62581">
        <ele>1626.01</ele>
        <time>2017-08-15T10:54:30Z</time>
      </trkpt>
      <trkpt lat="42.71564" lon="0.62577">
        <ele>1626.19</ele>
        <time>2017-08-15T10:54:54Z</time>
      </trkpt>
      <trkpt lat="42.71561" lon="0.62581">
        <ele>1626.45</ele>
        <time>2017-08-15T10:55:23Z</time>
      </trkpt>
      <trkpt lat="42.7156" lon="0.62582">
        <ele>1626.05</ele>
        <time>2017-08-15T10:55:49Z</time>
      </trkpt>
      <trkpt lat="42.71556" lon="0.62574">
        <ele>1625.96</ele>
        <time>2017-08-15T10:56:11Z</time>
      </trkpt>
      <trkpt lat="42.71554" lon="0.62557">
        <ele>1626.85</ele>
        <time>2017-08-15T10:56:25Z</time>
      </trkpt>
      <trkpt lat="42.71553" lon="0.62536">
        <ele>1627.54</ele>
        <time>2017-08-15T10:56:40Z</time>
      </trkpt>
      <trkpt lat="42.71553" lon="0.62531">
        <ele>1627.63</ele>
        <time>2017-08-15T10:56:43Z</time>
      </trkpt>
      <trkpt lat="42.7155" lon="0.62513">
        <ele>1627.8</ele>
        <time>2017-08-15T10:56:55Z</time>
      </trkpt>
      <trkpt lat="42.71546" lon="0.62494">
        <ele>1628.73</ele>
        <time>2017-08-15T10:57:09Z</time>
      </trkpt>
      <trkpt lat="42.71539" lon="0.62485">
        <ele>1629.45</ele>
        <time>2017-08-15T10:57:23Z</time>
      </trkpt>
      <trkpt lat="42.71534" lon="0.62464">
        <ele>1630.93</ele>
        <time>2017-08-15T10:57:42Z</time>
      </trkpt>
      <trkpt lat="42.7153" lon="0.62442">
        <ele>1631</ele>
        <time>2017-08-15T10:57:59Z</time>
      </trkpt>
      <trkpt lat="42.71525" lon="0.62429">
        <ele>1632.96</ele>
        <time>2017-08-15T10:58:12Z</time>
      </trkpt>
      <trkpt lat="42.71527" lon="0.62412">
        <ele>1633.07</ele>
        <time>2017-08-15T10:58:27Z</time>
      </trkpt>
      <trkpt lat="42.71533" lon="0.62392">
        <ele>1633.86</ele>
        <time>2017-08-15T10:58:44Z</time>
      </trkpt>
      <trkpt lat="42.71532" lon="0.62387">
        <ele>1634.05</ele>
        <time>2017-08-15T10:58:47Z</time>
      </trkpt>
      <trkpt lat="42.71536" lon="0.62365">
        <ele>1634.83</ele>
        <time>2017-08-15T10:59:07Z</time>
      </trkpt>
      <trkpt lat="42.71531" lon="0.62345">
        <ele>1636.12</ele>
        <time>2017-08-15T10:59:25Z</time>
      </trkpt>
      <trkpt lat="42.7153" lon="0.62343">
        <ele>1636.27</ele>
        <time>2017-08-15T10:59:27Z</time>
      </trkpt>
      <trkpt lat="42.71527" lon="0.62336">
        <ele>1636.61</ele>
        <time>2017-08-15T10:59:32Z</time>
      </trkpt>
      <trkpt lat="42.71521" lon="0.62317">
        <ele>1637.09</ele>
        <time>2017-08-15T10:59:47Z</time>
      </trkpt>
      <trkpt lat="42.71513" lon="0.62294">
        <ele>1638.16</ele>
        <time>2017-08-15T11:00:03Z</time>
      </trkpt>
      <trkpt lat="42.71512" lon="0.62269">
        <ele>1639.02</ele>
        <time>2017-08-15T11:00:21Z</time>
      </trkpt>
      <trkpt lat="42.71513" lon="0.62247">
        <ele>1639.87</ele>
        <time>2017-08-15T11:00:39Z</time>
      </trkpt>
      <trkpt lat="42.71513" lon="0.62227">
        <ele>1641.08</ele>
        <time>2017-08-15T11:00:57Z</time>
      </trkpt>
      <trkpt lat="42.71509" lon="0.62197">
        <ele>1642.35</ele>
        <time>2017-08-15T11:01:18Z</time>
      </trkpt>
      <trkpt lat="42.71505" lon="0.62169">
        <ele>1643.1</ele>
        <time>2017-08-15T11:01:38Z</time>
      </trkpt>
      <trkpt lat="42.71506" lon="0.62155">
        <ele>1643.57</ele>
        <time>2017-08-15T11:01:59Z</time>
      </trkpt>
      <trkpt lat="42.71505" lon="0.62126">
        <ele>1644.3</ele>
        <time>2017-08-15T11:02:17Z</time>
      </trkpt>
      <trkpt lat="42.71504" lon="0.62121">
        <ele>1644.87</ele>
        <time>2017-08-15T11:02:20Z</time>
      </trkpt>
      <trkpt lat="42.71507" lon="0.62118">
        <ele>1645.37</ele>
        <time>2017-08-15T11:02:46Z</time>
      </trkpt>
      <trkpt lat="42.71505" lon="0.62109">
        <ele>1645.42</ele>
        <time>2017-08-15T11:03:11Z</time>
      </trkpt>
      <trkpt lat="42.71507" lon="0.62082">
        <ele>1644.34</ele>
        <time>2017-08-15T11:03:29Z</time>
      </trkpt>
      <trkpt lat="42.7151" lon="0.62062">
        <ele>1645.71</ele>
        <time>2017-08-15T11:03:45Z</time>
      </trkpt>
      <trkpt lat="42.71511" lon="0.62039">
        <ele>1646.18</ele>
        <time>2017-08-15T11:04:02Z</time>
      </trkpt>
      <trkpt lat="42.71521" lon="0.62021">
        <ele>1647.25</ele>
        <time>2017-08-15T11:04:19Z</time>
      </trkpt>
      <trkpt lat="42.71536" lon="0.62001">
        <ele>1648.58</ele>
        <time>2017-08-15T11:04:39Z</time>
      </trkpt>
      <trkpt lat="42.7156" lon="0.61986">
        <ele>1650.26</ele>
        <time>2017-08-15T11:04:59Z</time>
      </trkpt>
      <trkpt lat="42.71577" lon="0.61964">
        <ele>1651.73</ele>
        <time>2017-08-15T11:05:18Z</time>
      </trkpt>
      <trkpt lat="42.71594" lon="0.61952">
        <ele>1652.97</ele>
        <time>2017-08-15T11:05:34Z</time>
      </trkpt>
      <trkpt lat="42.71607" lon="0.61937">
        <ele>1653.95</ele>
        <time>2017-08-15T11:05:54Z</time>
      </trkpt>
      <trkpt lat="42.71599" lon="0.61925">
        <ele>1655.33</ele>
        <time>2017-08-15T11:06:14Z</time>
      </trkpt>
      <trkpt lat="42.71591" lon="0.61903">
        <ele>1656.18</ele>
        <time>2017-08-15T11:06:31Z</time>
      </trkpt>
      <trkpt lat="42.71584" lon="0.61873">
        <ele>1657.78</ele>
        <time>2017-08-15T11:06:51Z</time>
      </trkpt>
      <trkpt lat="42.71581" lon="0.61843">
        <ele>1658.48</ele>
        <time>2017-08-15T11:07:09Z</time>
      </trkpt>
      <trkpt lat="42.71576" lon="0.61818">
        <ele>1659.6</ele>
        <time>2017-08-15T11:07:28Z</time>
      </trkpt>
      <trkpt lat="42.71569" lon="0.61787">
        <ele>1661.24</ele>
        <time>2017-08-15T11:07:48Z</time>
      </trkpt>
      <trkpt lat="42.71568" lon="0.61783">
        <ele>1661.54</ele>
        <time>2017-08-15T11:07:53Z</time>
      </trkpt>
      <trkpt lat="42.71555" lon="0.61765">
        <ele>1662.21</ele>
        <time>2017-08-15T11:08:13Z</time>
      </trkpt>
      <trkpt lat="42.71539" lon="0.61758">
        <ele>1663.13</ele>
        <time>2017-08-15T11:08:31Z</time>
      </trkpt>
      <trkpt lat="42.71513" lon="0.61746">
        <ele>1663.8</ele>
        <time>2017-08-15T11:08:52Z</time>
      </trkpt>
      <trkpt lat="42.71496" lon="0.61727">
        <ele>1665.23</ele>
        <time>2017-08-15T11:09:10Z</time>
      </trkpt>
      <trkpt lat="42.71482" lon="0.61728">
        <ele>1666.8</ele>
        <time>2017-08-15T11:09:31Z</time>
      </trkpt>
      <trkpt lat="42.71468" lon="0.61729">
        <ele>1668.03</ele>
        <time>2017-08-15T11:09:47Z</time>
      </trkpt>
      <trkpt lat="42.71463" lon="0.61727">
        <ele>1668.99</ele>
        <time>2017-08-15T11:09:54Z</time>
      </trkpt>
      <trkpt lat="42.71447" lon="0.61743">
        <ele>1670.38</ele>
        <time>2017-08-15T11:10:14Z</time>
      </trkpt>
      <trkpt lat="42.71442" lon="0.61746">
        <ele>1670.73</ele>
        <time>2017-08-15T11:10:19Z</time>
      </trkpt>
      <trkpt lat="42.71422" lon="0.61756">
        <ele>1672.21</ele>
        <time>2017-08-15T11:10:39Z</time>
      </trkpt>
      <trkpt lat="42.71408" lon="0.61768">
        <ele>1673.05</ele>
        <time>2017-08-15T11:10:55Z</time>
      </trkpt>
      <trkpt lat="42.71406" lon="0.61769">
        <ele>1673.12</ele>
        <time>2017-08-15T11:10:56Z</time>
      </trkpt>
      <trkpt lat="42.71395" lon="0.6178">
        <ele>1674.03</ele>
        <time>2017-08-15T11:11:09Z</time>
      </trkpt>
      <trkpt lat="42.71374" lon="0.61775">
        <ele>1674.84</ele>
        <time>2017-08-15T11:11:27Z</time>
      </trkpt>
      <trkpt lat="42.71357" lon="0.61774">
        <ele>1675.87</ele>
        <time>2017-08-15T11:11:45Z</time>
      </trkpt>
      <trkpt lat="42.71337" lon="0.61763">
        <ele>1676.49</ele>
        <time>2017-08-15T11:12:01Z</time>
      </trkpt>
      <trkpt lat="42.71316" lon="0.61745">
        <ele>1676.5</ele>
        <time>2017-08-15T11:12:17Z</time>
      </trkpt>
      <trkpt lat="42.71301" lon="0.61733">
        <ele>1678.01</ele>
        <time>2017-08-15T11:12:35Z</time>
      </trkpt>
      <trkpt lat="42.713" lon="0.61709">
        <ele>1678.76</ele>
        <time>2017-08-15T11:12:52Z</time>
      </trkpt>
      <trkpt lat="42.713" lon="0.61696">
        <ele>1678.44</ele>
        <time>2017-08-15T11:13:03Z</time>
      </trkpt>
      <trkpt lat="42.71297" lon="0.61685">
        <ele>1677.06</ele>
        <time>2017-08-15T11:13:14Z</time>
      </trkpt>
      <trkpt lat="42.71285" lon="0.61676">
        <ele>1674.86</ele>
        <time>2017-08-15T11:13:28Z</time>
      </trkpt>
      <trkpt lat="42.71278" lon="0.61673">
        <ele>1674.02</ele>
        <time>2017-08-15T11:13:35Z</time>
      </trkpt>
      <trkpt lat="42.71261" lon="0.61666">
        <ele>1671.52</ele>
        <time>2017-08-15T11:13:53Z</time>
      </trkpt>
      <trkpt lat="42.71246" lon="0.61662">
        <ele>1669.07</ele>
        <time>2017-08-15T11:14:09Z</time>
      </trkpt>
      <trkpt lat="42.71228" lon="0.61647">
        <ele>1666.66</ele>
        <time>2017-08-15T11:14:26Z</time>
      </trkpt>
      <trkpt lat="42.71208" lon="0.6165">
        <ele>1665.13</ele>
        <time>2017-08-15T11:14:53Z</time>
      </trkpt>
      <trkpt lat="42.71191" lon="0.61655">
        <ele>1662.59</ele>
        <time>2017-08-15T11:15:11Z</time>
      </trkpt>
      <trkpt lat="42.71173" lon="0.61656">
        <ele>1660.57</ele>
        <time>2017-08-15T11:15:30Z</time>
      </trkpt>
      <trkpt lat="42.71158" lon="0.61669">
        <ele>1659.63</ele>
        <time>2017-08-15T11:15:49Z</time>
      </trkpt>
      <trkpt lat="42.71143" lon="0.61677">
        <ele>1659.05</ele>
        <time>2017-08-15T11:16:05Z</time>
      </trkpt>
      <trkpt lat="42.71139" lon="0.61678">
        <ele>1659.14</ele>
        <time>2017-08-15T11:16:10Z</time>
      </trkpt>
      <trkpt lat="42.71128" lon="0.61682">
        <ele>1659.1</ele>
        <time>2017-08-15T11:16:26Z</time>
      </trkpt>
      <trkpt lat="42.71125" lon="0.61684">
        <ele>1658.99</ele>
        <time>2017-08-15T11:16:29Z</time>
      </trkpt>
      <trkpt lat="42.71117" lon="0.61691">
        <ele>1657.92</ele>
        <time>2017-08-15T11:16:48Z</time>
      </trkpt>
      <trkpt lat="42.71117" lon="0.61694">
        <ele>1657.95</ele>
        <time>2017-08-15T11:17:21Z</time>
      </trkpt>
      <trkpt lat="42.71121" lon="0.61691">
        <ele>1657.31</ele>
        <time>2017-08-15T11:17:52Z</time>
      </trkpt>
      <trkpt lat="42.71119" lon="0.61689">
        <ele>1657.35</ele>
        <time>2017-08-15T11:18:21Z</time>
      </trkpt>
      <trkpt lat="42.7112" lon="0.61695">
        <ele>1657.6</ele>
        <time>2017-08-15T11:18:52Z</time>
      </trkpt>
      <trkpt lat="42.71119" lon="0.61697">
        <ele>1657.08</ele>
        <time>2017-08-15T11:19:18Z</time>
      </trkpt>
      <trkpt lat="42.71103" lon="0.61707">
        <ele>1656.3</ele>
        <time>2017-08-15T11:19:36Z</time>
      </trkpt>
      <trkpt lat="42.71086" lon="0.61715">
        <ele>1654.73</ele>
        <time>2017-08-15T11:19:55Z</time>
      </trkpt>
      <trkpt lat="42.71084" lon="0.61716">
        <ele>1654.45</ele>
        <time>2017-08-15T11:19:57Z</time>
      </trkpt>
      <trkpt lat="42.71072" lon="0.61726">
        <ele>1652.66</ele>
        <time>2017-08-15T11:20:09Z</time>
      </trkpt>
      <trkpt lat="42.7107" lon="0.61729">
        <ele>1652.56</ele>
        <time>2017-08-15T11:20:12Z</time>
      </trkpt>
      <trkpt lat="42.71063" lon="0.61743">
        <ele>1652.53</ele>
        <time>2017-08-15T11:20:26Z</time>
      </trkpt>
      <trkpt lat="42.71058" lon="0.61755">
        <ele>1653.24</ele>
        <time>2017-08-15T11:20:40Z</time>
      </trkpt>
      <trkpt lat="42.71048" lon="0.61764">
        <ele>1653.72</ele>
        <time>2017-08-15T11:20:54Z</time>
      </trkpt>
      <trkpt lat="42.71041" lon="0.61756">
        <ele>1653.86</ele>
        <time>2017-08-15T11:21:09Z</time>
      </trkpt>
      <trkpt lat="42.71037" lon="0.61751">
        <ele>1654.03</ele>
        <time>2017-08-15T11:21:15Z</time>
      </trkpt>
      <trkpt lat="42.71023" lon="0.61747">
        <ele>1653.95</ele>
        <time>2017-08-15T11:21:31Z</time>
      </trkpt>
      <trkpt lat="42.71022" lon="0.61747">
        <ele>1653.96</ele>
        <time>2017-08-15T11:21:32Z</time>
      </trkpt>
      <trkpt lat="42.71014" lon="0.61747">
        <ele>1654.41</ele>
        <time>2017-08-15T11:21:48Z</time>
      </trkpt>
      <trkpt lat="42.71009" lon="0.61744">
        <ele>1653.94</ele>
        <time>2017-08-15T11:22:21Z</time>
      </trkpt>
      <trkpt lat="42.71" lon="0.61734">
        <ele>1651.79</ele>
        <time>2017-08-15T11:22:36Z</time>
      </trkpt>
      <trkpt lat="42.71001" lon="0.61722">
        <ele>1649.97</ele>
        <time>2017-08-15T11:22:46Z</time>
      </trkpt>
      <trkpt lat="42.71002" lon="0.61712">
        <ele>1648.17</ele>
        <time>2017-08-15T11:23:02Z</time>
      </trkpt>
      <trkpt lat="42.70998" lon="0.61704">
        <ele>1645.98</ele>
        <time>2017-08-15T11:23:20Z</time>
      </trkpt>
      <trkpt lat="42.70997" lon="0.61703">
        <ele>1645.14</ele>
        <time>2017-08-15T11:23:49Z</time>
      </trkpt>
      <trkpt lat="42.70997" lon="0.61701">
        <ele>1644.61</ele>
        <time>2017-08-15T11:24:00Z</time>
      </trkpt>
      <trkpt lat="42.70994" lon="0.61698">
        <ele>1644.31</ele>
        <time>2017-08-15T11:24:19Z</time>
      </trkpt>
      <trkpt lat="42.70994" lon="0.61701">
        <ele>1644.16</ele>
        <time>2017-08-15T11:24:27Z</time>
      </trkpt>
      <trkpt lat="42.71003" lon="0.61699">
        <ele>1644.11</ele>
        <time>2017-08-15T11:24:42Z</time>
      </trkpt>
      <trkpt lat="42.70998" lon="0.61707">
        <ele>1644.88</ele>
        <time>2017-08-15T11:25:01Z</time>
      </trkpt>
      <trkpt lat="42.70996" lon="0.61705">
        <ele>1645.82</ele>
        <time>2017-08-15T11:25:12Z</time>
      </trkpt>
      <trkpt lat="42.70997" lon="0.61711">
        <ele>1644.8</ele>
        <time>2017-08-15T11:25:26Z</time>
      </trkpt>
      <trkpt lat="42.71001" lon="0.61702">
        <ele>1643.91</ele>
        <time>2017-08-15T11:25:42Z</time>
      </trkpt>
      <trkpt lat="42.71001" lon="0.61701">
        <ele>1643.72</ele>
        <time>2017-08-15T11:26:04Z</time>
      </trkpt>
      <trkpt lat="42.70999" lon="0.61699">
        <ele>1644.1</ele>
        <time>2017-08-15T11:26:15Z</time>
      </trkpt>
      <trkpt lat="42.71004" lon="0.61701">
        <ele>1644.61</ele>
        <time>2017-08-15T11:26:36Z</time>
      </trkpt>
      <trkpt lat="42.71026" lon="0.61691">
        <ele>1644.68</ele>
        <time>2017-08-15T11:26:47Z</time>
      </trkpt>
      <trkpt lat="42.71049" lon="0.61682">
        <ele>1644.66</ele>
        <time>2017-08-15T11:27:04Z</time>
      </trkpt>
      <trkpt lat="42.71065" lon="0.61683">
        <ele>1644.92</ele>
        <time>2017-08-15T11:27:24Z</time>
      </trkpt>
      <trkpt lat="42.71076" lon="0.61669">
        <ele>1644.49</ele>
        <time>2017-08-15T11:27:40Z</time>
      </trkpt>
      <trkpt lat="42.70967" lon="0.61716">
        <ele>1642.22</ele>
        <time>2017-08-15T11:30:45Z</time>
      </trkpt>
      <trkpt lat="42.70909" lon="0.61722">
        <ele>1642.24</ele>
        <time>2017-08-15T11:31:15Z</time>
      </trkpt>
      <trkpt lat="42.70897" lon="0.61724">
        <ele>1642.47</ele>
        <time>2017-08-15T11:31:20Z</time>
      </trkpt>
    </trkseg>
  </trk>
</gpx>